createdAt,value
2022-08-04T00:00:40.804Z,995.55
2022-08-04T00:01:45.498Z,995.53
2022-08-04T00:02:50.048Z,995.55
2022-08-04T00:03:56.006Z,995.54
2022-08-04T00:05:00.472Z,995.55
2022-08-04T00:06:05.046Z,995.51
2022-08-04T00:07:09.600Z,995.61
2022-08-04T00:08:14.210Z,995.58
2022-08-04T00:09:18.810Z,995.55
2022-08-04T00:10:23.333Z,995.6
2022-08-04T00:11:27.863Z,995.56
2022-08-04T00:12:39.952Z,995.53
2022-08-04T00:14:02.796Z,995.53
2022-08-04T00:15:07.829Z,995.53
2022-08-04T00:16:12.233Z,995.58
2022-08-04T00:17:16.793Z,995.52
2022-08-04T00:18:21.297Z,995.49
2022-08-04T00:19:25.844Z,995.55
2022-08-04T00:20:30.447Z,995.54
2022-08-04T00:21:34.958Z,995.51
2022-08-04T00:22:39.516Z,995.51
2022-08-04T00:24:10.251Z,995.56
2022-08-04T00:25:07.927Z,995.55
2022-08-04T00:26:12.438Z,995.57
2022-08-04T00:27:16.933Z,995.58
2022-08-04T00:28:21.446Z,995.6
2022-08-04T00:29:25.992Z,995.52
2022-08-04T00:30:30.557Z,995.58
2022-08-04T00:31:54.578Z,995.55
2022-08-04T00:32:58.986Z,995.6
2022-08-04T00:34:03.440Z,995.57
2022-08-04T00:35:07.970Z,995.6
2022-08-04T00:36:12.465Z,995.62
2022-08-04T00:37:17.025Z,995.7
2022-08-04T00:38:23.803Z,995.75
2022-08-04T00:39:28.567Z,995.72
2022-08-04T00:40:33.144Z,995.72
2022-08-04T00:41:56.153Z,995.69
2022-08-04T00:43:01.102Z,995.71
2022-08-04T00:44:05.581Z,995.7
2022-08-04T00:45:10.111Z,995.73
2022-08-04T00:46:18.336Z,995.74
2022-08-04T00:47:23.743Z,995.7
2022-08-04T00:48:29.613Z,995.71
2022-08-04T00:49:34.056Z,995.74
2022-08-04T00:50:38.817Z,995.76
2022-08-04T00:51:43.253Z,995.71
2022-08-04T00:52:47.788Z,995.73
2022-08-04T00:53:52.296Z,995.76
2022-08-04T00:54:56.867Z,995.72
2022-08-04T00:56:01.502Z,995.74
2022-08-04T00:57:06.067Z,995.68
2022-08-04T00:58:10.577Z,995.73
2022-08-04T00:59:15.078Z,995.71
2022-08-04T01:00:19.848Z,995.75
2022-08-04T01:01:24.541Z,995.73
2022-08-04T01:02:29.084Z,995.72
2022-08-04T01:03:33.635Z,995.72
2022-08-04T01:04:38.237Z,995.79
2022-08-04T01:05:42.802Z,995.84
2022-08-04T01:06:56.844Z,995.83
2022-08-04T01:08:01.044Z,995.87
2022-08-04T01:09:05.508Z,995.82
2022-08-04T01:10:18.082Z,995.76
2022-08-04T01:11:22.255Z,995.89
2022-08-04T01:12:26.723Z,995.82
2022-08-04T01:13:31.279Z,995.85
2022-08-04T01:14:35.829Z,995.82
2022-08-04T01:16:00.242Z,995.89
2022-08-04T01:17:04.207Z,995.9
2022-08-04T01:18:08.735Z,995.86
2022-08-04T01:19:13.295Z,995.88
2022-08-04T01:20:17.788Z,995.93
2022-08-04T01:21:22.322Z,995.89
2022-08-04T01:22:26.917Z,995.86
2022-08-04T01:23:31.424Z,995.84
2022-08-04T01:24:37.329Z,995.86
2022-08-04T01:25:42.421Z,995.83
2022-08-04T01:26:58.627Z,995.84
2022-08-04T01:28:02.903Z,995.83
2022-08-04T01:29:08.928Z,995.82
2022-08-04T01:30:13.344Z,995.81
2022-08-04T01:31:17.867Z,995.82
2022-08-04T01:32:26.787Z,995.81
2022-08-04T01:33:58.323Z,995.8
2022-08-04T01:34:54.978Z,995.85
2022-08-04T01:35:59.657Z,995.75
2022-08-04T01:37:04.128Z,995.79
2022-08-04T01:38:22.073Z,995.79
2022-08-04T01:39:27.749Z,995.71
2022-08-04T01:40:32.359Z,995.73
2022-08-04T01:41:36.867Z,995.71
2022-08-04T01:42:41.429Z,995.68
2022-08-04T01:43:45.933Z,995.69
2022-08-04T01:44:50.425Z,995.69
2022-08-04T01:45:54.939Z,995.68
2022-08-04T01:46:59.433Z,995.68
2022-08-04T01:48:04.015Z,995.66
2022-08-04T01:49:08.500Z,995.64
2022-08-04T01:50:14.460Z,995.6
2022-08-04T01:51:18.919Z,995.61
2022-08-04T01:52:23.434Z,995.62
2022-08-04T01:53:27.942Z,995.6
2022-08-04T01:54:32.464Z,995.65
2022-08-04T01:55:54.564Z,995.65
2022-08-04T01:56:59.534Z,995.65
2022-08-04T01:58:03.984Z,995.63
2022-08-04T01:59:08.455Z,995.65
2022-08-04T02:00:12.955Z,995.72
2022-08-04T02:01:17.755Z,995.68
2022-08-04T02:02:22.800Z,995.71
2022-08-04T02:04:19.192Z,995.7
2022-08-04T02:04:51.221Z,995.75
2022-08-04T02:06:04.552Z,995.73
2022-08-04T02:07:10.670Z,995.79
2022-08-04T02:08:17.982Z,995.76
2022-08-04T02:09:22.475Z,995.77
2022-08-04T02:10:26.968Z,995.83
2022-08-04T02:11:31.501Z,995.78
2022-08-04T02:12:35.983Z,995.77
2022-08-04T02:13:40.497Z,995.73
2022-08-04T02:14:45.005Z,995.73
2022-08-04T02:15:49.527Z,995.77
2022-08-04T02:16:54.018Z,995.74
2022-08-04T02:18:00.738Z,995.73
2022-08-04T02:19:05.184Z,995.74
2022-08-04T02:20:09.700Z,995.71
2022-08-04T02:21:14.237Z,995.68
2022-08-04T02:22:18.755Z,995.7
2022-08-04T02:23:23.304Z,995.66
2022-08-04T02:24:27.802Z,995.65
2022-08-04T02:25:33.186Z,995.64
2022-08-04T02:26:37.675Z,995.7
2022-08-04T02:27:59.039Z,995.69
2022-08-04T02:29:03.953Z,995.63
2022-08-04T02:30:08.375Z,995.65
2022-08-04T02:31:12.959Z,995.63
2022-08-04T02:32:17.502Z,995.65
2022-08-04T02:33:21.987Z,995.62
2022-08-04T02:34:26.489Z,995.58
2022-08-04T02:35:30.996Z,995.64
2022-08-04T02:36:35.507Z,995.57
2022-08-04T02:37:40.031Z,995.62
2022-08-04T02:38:44.524Z,995.61
2022-08-04T02:39:50.073Z,995.62
2022-08-04T02:41:00.636Z,995.62
2022-08-04T02:42:04.917Z,995.65
2022-08-04T02:43:09.395Z,995.61
2022-08-04T02:44:13.914Z,995.64
2022-08-04T02:45:18.407Z,995.66
2022-08-04T02:46:22.978Z,995.63
2022-08-04T02:48:08.009Z,995.67
2022-08-04T02:48:51.411Z,995.68
2022-08-04T02:49:57.512Z,995.73
2022-08-04T02:51:01.910Z,995.65
2022-08-04T02:52:06.379Z,995.65
2022-08-04T02:53:10.862Z,995.69
2022-08-04T02:54:31.770Z,995.66
2022-08-04T02:55:37.577Z,995.64
2022-08-04T02:56:43.265Z,995.66
2022-08-04T02:57:47.688Z,995.64
2022-08-04T02:58:52.371Z,995.65
2022-08-04T02:59:56.881Z,995.66
2022-08-04T03:01:01.678Z,995.61
2022-08-04T03:02:06.217Z,995.64
2022-08-04T03:03:13.310Z,995.59
2022-08-04T03:04:25.604Z,995.62
2022-08-04T03:05:50.135Z,995.62
2022-08-04T03:06:53.677Z,995.59
2022-08-04T03:07:58.152Z,995.62
2022-08-04T03:09:02.649Z,995.62
2022-08-04T03:10:07.178Z,995.63
2022-08-04T03:11:12.038Z,995.62
2022-08-04T03:12:17.619Z,995.66
2022-08-04T03:13:22.136Z,995.62
2022-08-04T03:14:26.649Z,995.66
2022-08-04T03:15:31.183Z,995.63
2022-08-04T03:16:39.225Z,995.62
2022-08-04T03:17:53.714Z,995.62
2022-08-04T03:18:57.981Z,995.63
2022-08-04T03:20:02.431Z,995.63
2022-08-04T03:21:06.946Z,995.65
2022-08-04T03:22:11.481Z,995.65
2022-08-04T03:23:16.017Z,995.67
2022-08-04T03:24:20.786Z,995.68
2022-08-04T03:25:25.256Z,995.66
2022-08-04T03:26:29.792Z,995.67
2022-08-04T03:27:34.299Z,995.67
2022-08-04T03:28:38.853Z,995.65
2022-08-04T03:29:43.375Z,995.64
2022-08-04T03:30:47.919Z,995.64
2022-08-04T03:31:52.449Z,995.64
2022-08-04T03:32:56.950Z,995.65
2022-08-04T03:34:03.410Z,995.62
2022-08-04T03:35:07.811Z,995.65
2022-08-04T03:36:12.304Z,995.67
2022-08-04T03:37:16.880Z,995.69
2022-08-04T03:38:21.397Z,995.64
2022-08-04T03:39:26.182Z,995.66
2022-08-04T03:40:30.761Z,995.6
2022-08-04T03:41:51.190Z,995.64
2022-08-04T03:42:59.214Z,995.63
2022-08-04T03:44:03.646Z,995.62
2022-08-04T03:45:24.180Z,995.61
2022-08-04T03:46:28.597Z,995.65
2022-08-04T03:47:33.054Z,995.64
2022-08-04T03:48:37.560Z,995.61
2022-08-04T03:49:42.089Z,995.67
2022-08-04T03:50:46.578Z,995.65
2022-08-04T03:51:51.074Z,995.64
2022-08-04T03:52:55.572Z,995.57
2022-08-04T03:54:00.104Z,995.64
2022-08-04T03:55:04.613Z,995.6
2022-08-04T03:56:09.160Z,995.63
2022-08-04T03:57:13.754Z,995.64
2022-08-04T03:58:18.238Z,995.64
2022-08-04T03:59:22.756Z,995.63
2022-08-04T04:00:27.283Z,995.64
2022-08-04T04:02:01.769Z,995.67
2022-08-04T04:02:55.956Z,995.64
2022-08-04T04:04:00.388Z,995.69
2022-08-04T04:05:04.878Z,995.67
2022-08-04T04:06:15.428Z,995.65
2022-08-04T04:07:35.989Z,995.7
2022-08-04T04:08:49.872Z,995.7
2022-08-04T04:10:07.453Z,995.66
2022-08-04T04:11:11.669Z,995.72
2022-08-04T04:12:16.153Z,995.77
2022-08-04T04:13:20.641Z,995.72
2022-08-04T04:14:25.122Z,995.69
2022-08-04T04:15:31.181Z,995.75
2022-08-04T04:16:35.651Z,995.71
2022-08-04T04:17:40.160Z,995.71
2022-08-04T04:18:45.892Z,995.73
2022-08-04T04:19:50.280Z,995.78
2022-08-04T04:20:54.826Z,995.73
2022-08-04T04:21:59.308Z,995.73
2022-08-04T04:23:03.813Z,995.77
2022-08-04T04:24:08.292Z,995.76
2022-08-04T04:25:12.895Z,995.77
2022-08-04T04:26:19.885Z,995.71
2022-08-04T04:27:24.296Z,995.73
2022-08-04T04:28:46.733Z,995.77
2022-08-04T04:29:51.345Z,995.7
2022-08-04T04:30:57.528Z,995.75
2022-08-04T04:32:01.996Z,995.77
2022-08-04T04:33:06.490Z,995.73
2022-08-04T04:34:11.028Z,995.73
2022-08-04T04:35:15.514Z,995.79
2022-08-04T04:36:20.023Z,995.77
2022-08-04T04:37:24.523Z,995.79
2022-08-04T04:38:29.061Z,995.81
2022-08-04T04:39:33.930Z,995.8
2022-08-04T04:40:38.527Z,995.78
2022-08-04T04:41:43.027Z,995.85
2022-08-04T04:42:47.540Z,995.82
2022-08-04T04:43:53.107Z,995.85
2022-08-04T04:44:59.267Z,995.83
2022-08-04T04:46:03.791Z,995.84
2022-08-04T04:47:08.289Z,995.82
2022-08-04T04:48:12.850Z,995.84
2022-08-04T04:49:17.363Z,995.84
2022-08-04T04:50:37.038Z,995.89
2022-08-04T04:51:41.271Z,995.87
2022-08-04T04:52:45.717Z,995.88
2022-08-04T04:54:00.975Z,995.89
2022-08-04T04:55:05.086Z,995.88
2022-08-04T04:56:09.538Z,995.9
2022-08-04T04:57:14.193Z,995.92
2022-08-04T04:58:19.251Z,995.89
2022-08-04T04:59:23.781Z,995.91
2022-08-04T05:00:28.300Z,995.91
2022-08-04T05:01:32.823Z,995.91
2022-08-04T05:02:37.334Z,995.95
2022-08-04T05:03:42.022Z,995.92
2022-08-04T05:04:46.542Z,995.94
2022-08-04T05:05:51.065Z,995.93
2022-08-04T05:06:55.603Z,995.96
2022-08-04T05:08:44.027Z,995.93
2022-08-04T05:09:23.997Z,995.97
2022-08-04T05:10:28.454Z,995.94
2022-08-04T05:11:32.942Z,995.95
2022-08-04T05:14:22.974Z,995.93
2022-08-04T05:14:33.801Z,995.98
2022-08-04T05:15:25.925Z,995.98
2022-08-04T05:16:30.289Z,995.98
2022-08-04T05:17:34.784Z,995.95
2022-08-04T05:18:39.272Z,995.98
2022-08-04T05:19:46.465Z,996
2022-08-04T05:20:50.809Z,996.01
2022-08-04T05:21:55.322Z,996
2022-08-04T05:22:59.996Z,995.94
2022-08-04T05:24:04.576Z,996.02
2022-08-04T05:25:09.096Z,996
2022-08-04T05:26:13.623Z,996
2022-08-04T05:27:18.244Z,996.05
2022-08-04T05:28:22.946Z,996.05
2022-08-04T05:29:32.331Z,995.99
2022-08-04T05:30:36.611Z,996.08
2022-08-04T05:31:41.143Z,996.03
2022-08-04T05:32:45.695Z,996.07
2022-08-04T05:33:50.231Z,995.99
2022-08-04T05:34:54.802Z,995.98
2022-08-04T05:36:18.158Z,996.04
2022-08-04T05:37:30.572Z,996.1
2022-08-04T05:38:34.853Z,996.03
2022-08-04T05:39:39.539Z,996.02
2022-08-04T05:40:44.144Z,996
2022-08-04T05:42:04.154Z,995.98
2022-08-04T05:43:09.012Z,995.93
2022-08-04T05:44:13.445Z,995.89
2022-08-04T05:45:17.973Z,995.97
2022-08-04T05:46:22.540Z,995.97
2022-08-04T05:47:27.116Z,995.95
2022-08-04T05:48:31.741Z,995.95
2022-08-04T05:49:36.270Z,995.96
2022-08-04T05:50:40.963Z,995.98
2022-08-04T05:51:45.444Z,996.02
2022-08-04T05:52:50.005Z,996.02
2022-08-04T05:53:54.566Z,996.05
2022-08-04T05:54:59.125Z,996.07
2022-08-04T05:56:04.127Z,996.12
2022-08-04T05:57:08.739Z,996.09
2022-08-04T05:58:14.927Z,996.09
2022-08-04T05:59:19.411Z,996.17
2022-08-04T06:00:41.442Z,996.09
2022-08-04T06:01:57.982Z,996.18
2022-08-04T06:03:02.305Z,996.18
2022-08-04T06:04:11.885Z,996.16
2022-08-04T06:05:16.186Z,996.24
2022-08-04T06:06:20.770Z,996.2
2022-08-04T06:07:25.265Z,996.2
2022-08-04T06:08:29.837Z,996.23
2022-08-04T06:09:34.502Z,996.25
2022-08-04T06:10:39.046Z,996.2
2022-08-04T06:12:00.963Z,996.23
2022-08-04T06:13:07.539Z,996.2
2022-08-04T06:14:12.107Z,996.24
2022-08-04T06:15:18.372Z,996.21
2022-08-04T06:16:31.009Z,996.21
2022-08-04T06:18:34.175Z,996.17
2022-08-04T06:19:58.297Z,996.2
2022-08-04T06:20:25.324Z,996.17
2022-08-04T06:21:30.050Z,996.18
2022-08-04T06:22:34.614Z,996.18
2022-08-04T06:24:00.976Z,996.18
2022-08-04T06:25:03.126Z,996.19
2022-08-04T06:26:08.215Z,996.15
2022-08-04T06:27:12.711Z,996.17
2022-08-04T06:28:17.251Z,996.18
2022-08-04T06:29:21.842Z,996.16
2022-08-04T06:30:27.097Z,996.19
2022-08-04T06:32:26.577Z,996.21
2022-08-04T06:33:05.441Z,996.24
2022-08-04T06:34:09.634Z,996.24
2022-08-04T06:35:14.254Z,996.25
2022-08-04T06:36:18.798Z,996.32
2022-08-04T06:37:41.748Z,996.25
2022-08-04T06:38:58.960Z,996.24
2022-08-04T06:40:30.309Z,996.25
2022-08-04T06:41:28.746Z,996.29
2022-08-04T06:42:33.165Z,996.27
2022-08-04T06:43:44.101Z,996.28
2022-08-04T06:44:48.399Z,996.32
2022-08-04T06:45:53.337Z,996.3
2022-08-04T06:46:59.097Z,996.35
2022-08-04T06:48:03.711Z,996.34
2022-08-04T06:49:08.364Z,996.35
2022-08-04T06:51:24.025Z,996.31
2022-08-04T06:51:49.748Z,996.33
2022-08-04T06:52:54.096Z,996.33
2022-08-04T06:53:58.594Z,996.28
2022-08-04T06:55:03.213Z,996.29
2022-08-04T06:56:07.845Z,996.28
2022-08-04T06:57:12.443Z,996.26
2022-08-04T06:58:17.071Z,996.31
2022-08-04T06:59:22.198Z,996.32
2022-08-04T07:00:27.317Z,996.3
2022-08-04T07:01:32.405Z,996.33
2022-08-04T07:02:36.971Z,996.35
2022-08-04T07:03:41.569Z,996.34
2022-08-04T07:04:46.129Z,996.34
2022-08-04T07:05:50.687Z,996.26
2022-08-04T07:06:55.367Z,996.25
2022-08-04T07:07:59.960Z,996.28
2022-08-04T07:09:06.265Z,996.28
2022-08-04T07:10:10.796Z,996.26
2022-08-04T07:11:15.370Z,996.26
2022-08-04T07:12:20.022Z,996.25
2022-08-04T07:13:24.612Z,996.23
2022-08-04T07:14:29.270Z,996.3
2022-08-04T07:15:33.857Z,996.25
2022-08-04T07:16:38.516Z,996.2
2022-08-04T07:17:52.543Z,996.25
2022-08-04T07:18:56.987Z,996.18
2022-08-04T07:20:01.802Z,996.22
2022-08-04T07:21:06.330Z,996.18
2022-08-04T07:22:25.887Z,996.23
2022-08-04T07:23:30.172Z,996.21
2022-08-04T07:24:34.879Z,996.19
2022-08-04T07:26:01.333Z,996.21
2022-08-04T07:27:03.445Z,996.24
2022-08-04T07:28:08.016Z,996.21
2022-08-04T07:29:12.628Z,996.25
2022-08-04T07:30:25.220Z,996.22
2022-08-04T07:31:36.668Z,996.27
2022-08-04T07:32:41.011Z,996.28
2022-08-04T07:34:11.638Z,996.31
2022-08-04T07:36:06.242Z,996.25
2022-08-04T07:36:50.156Z,996.34
2022-08-04T07:37:54.946Z,996.3
2022-08-04T07:39:00.166Z,996.25
2022-08-04T07:40:05.068Z,996.29
2022-08-04T07:41:39.927Z,996.23
2022-08-04T07:42:33.661Z,996.26
2022-08-04T07:43:38.245Z,996.2
2022-08-04T07:44:43.231Z,996.21
2022-08-04T07:45:47.800Z,996.22
2022-08-04T07:46:52.449Z,996.22
2022-08-04T07:48:06.240Z,996.22
2022-08-04T07:49:10.541Z,996.24
2022-08-04T07:50:15.159Z,996.24
2022-08-04T07:51:19.746Z,996.21
2022-08-04T07:52:24.438Z,996.29
2022-08-04T07:53:53.790Z,996.27
2022-08-04T07:54:53.102Z,996.26
2022-08-04T07:55:57.689Z,996.34
2022-08-04T07:57:02.333Z,996.34
2022-08-04T07:58:06.950Z,996.33
2022-08-04T07:59:11.564Z,996.3
2022-08-04T08:00:16.158Z,996.32
2022-08-04T08:01:20.768Z,996.34
2022-08-04T08:02:25.362Z,996.28
2022-08-04T08:03:30.593Z,996.29
2022-08-04T08:04:35.184Z,996.3
2022-08-04T08:06:18.403Z,996.29
2022-08-04T08:07:03.772Z,996.23
2022-08-04T08:08:08.427Z,996.26
2022-08-04T08:09:15.161Z,996.25
2022-08-04T08:10:19.671Z,996.24
2022-08-04T08:12:34.333Z,996.27
2022-08-04T08:12:52.872Z,996.31
2022-08-04T08:13:59.693Z,996.26
2022-08-04T08:15:04.126Z,996.21
2022-08-04T08:16:08.728Z,996.26
2022-08-04T08:17:13.561Z,996.26
2022-08-04T08:18:18.176Z,996.27
2022-08-04T08:19:22.823Z,996.29
2022-08-04T08:20:31.144Z,996.28
2022-08-04T08:21:58.686Z,996.22
2022-08-04T08:23:00.031Z,996.25
2022-08-04T08:24:13.201Z,996.24
2022-08-04T08:25:17.460Z,996.23
2022-08-04T08:26:22.110Z,996.25
2022-08-04T08:27:26.682Z,996.3
2022-08-04T08:28:31.272Z,996.3
2022-08-04T08:29:35.918Z,996.28
2022-08-04T08:30:42.152Z,996.24
2022-08-04T08:32:07.682Z,996.24
2022-08-04T08:33:11.996Z,996.25
2022-08-04T08:34:28.906Z,996.3
2022-08-04T08:35:53.594Z,996.25
2022-08-04T08:36:57.739Z,996.29
2022-08-04T08:38:02.281Z,996.26
2022-08-04T08:39:07.999Z,996.32
2022-08-04T08:40:12.613Z,996.35
2022-08-04T08:41:17.325Z,996.28
2022-08-04T08:42:21.952Z,996.28
2022-08-04T08:44:00.776Z,996.28
2022-08-04T08:44:57.759Z,996.27
2022-08-04T08:46:02.337Z,996.18
2022-08-04T08:47:06.923Z,996.24
2022-08-04T08:48:11.503Z,996.21
2022-08-04T08:49:59.949Z,996.21
2022-08-04T08:50:40.065Z,996.2
2022-08-04T08:51:47.998Z,996.22
2022-08-04T08:53:03.333Z,996.22
2022-08-04T08:54:09.436Z,996.24
2022-08-04T08:55:14.165Z,996.29
2022-08-04T08:56:18.761Z,996.25
2022-08-04T08:57:24.210Z,996.24
2022-08-04T08:58:28.870Z,996.24
2022-08-04T08:59:33.463Z,996.22
2022-08-04T09:00:38.103Z,996.21
2022-08-04T09:01:42.904Z,996.2
2022-08-04T09:03:04.302Z,996.24
2022-08-04T09:04:06.584Z,996.21
2022-08-04T09:05:11.107Z,996.22
2022-08-04T09:06:15.780Z,996.24
2022-08-04T09:07:21.487Z,996.29
2022-08-04T09:08:26.136Z,996.17
2022-08-04T09:09:30.765Z,996.19
2022-08-04T09:10:35.954Z,996.21
2022-08-04T09:11:40.537Z,996.21
2022-08-04T09:12:45.172Z,996.15
2022-08-04T09:13:49.855Z,996.19
2022-08-04T09:14:54.482Z,996.12
2022-08-04T09:15:59.089Z,996.13
2022-08-04T09:17:03.723Z,996.21
2022-08-04T09:18:08.405Z,996.17
2022-08-04T09:19:38.428Z,996.14
2022-08-04T09:20:37.150Z,996.13
2022-08-04T09:21:41.730Z,996.15
2022-08-04T09:22:46.399Z,996.19
2022-08-04T09:23:51.034Z,996.18
2022-08-04T09:24:55.654Z,996.18
2022-08-04T09:26:00.307Z,996.15
2022-08-04T09:27:04.907Z,996.07
2022-08-04T09:28:10.159Z,996.16
2022-08-04T09:29:14.897Z,996.11
2022-08-04T09:30:19.548Z,996.2
2022-08-04T09:31:24.076Z,996.15
2022-08-04T09:32:28.720Z,996.15
2022-08-04T09:33:46.188Z,996.13
2022-08-04T09:35:08.530Z,996.24
2022-08-04T09:36:26.783Z,996.21
2022-08-04T09:37:31.095Z,996.21
2022-08-04T09:38:35.953Z,996.21
2022-08-04T09:39:52.761Z,996.18
2022-08-04T09:40:58.970Z,996.15
2022-08-04T09:42:10.230Z,996.12
2022-08-04T09:43:19.978Z,996.13
2022-08-04T09:44:52.802Z,996.15
2022-08-04T09:45:51.806Z,996.14
2022-08-04T09:46:56.269Z,996.1
2022-08-04T09:48:00.966Z,996.12
2022-08-04T09:49:05.522Z,996.1
2022-08-04T09:50:10.104Z,996.09
2022-08-04T09:51:15.153Z,996.07
2022-08-04T09:52:20.584Z,996.06
2022-08-04T09:53:25.792Z,996.09
2022-08-04T09:54:31.572Z,996.05
2022-08-04T09:55:53.062Z,996.04
2022-08-04T09:56:59.582Z,996.03
2022-08-04T09:58:04.113Z,996.08
2022-08-04T09:59:08.705Z,996.03
2022-08-04T10:00:13.919Z,996.05
2022-08-04T10:01:24.129Z,996.04
2022-08-04T10:02:28.786Z,996.06
2022-08-04T10:03:33.803Z,996.03
2022-08-04T10:04:38.419Z,996.06
2022-08-04T10:05:43.072Z,995.99
2022-08-04T10:06:47.739Z,996.02
2022-08-04T10:08:16.006Z,996.03
2022-08-04T10:09:16.345Z,996
2022-08-04T10:10:20.918Z,995.98
2022-08-04T10:11:25.506Z,996
2022-08-04T10:12:30.163Z,995.99
2022-08-04T10:13:34.770Z,996.01
2022-08-04T10:14:39.391Z,995.98
2022-08-04T10:15:43.982Z,996.02
2022-08-04T10:16:48.845Z,996.02
2022-08-04T10:17:53.444Z,995.97
2022-08-04T10:19:08.689Z,995.97
2022-08-04T10:20:12.927Z,995.92
2022-08-04T10:21:17.515Z,995.98
2022-08-04T10:22:45.009Z,995.97
2022-08-04T10:24:00.640Z,995.97
2022-08-04T10:25:37.765Z,995.92
2022-08-04T10:26:28.952Z,995.88
2022-08-04T10:27:33.477Z,995.86
2022-08-04T10:28:38.074Z,995.93
2022-08-04T10:29:42.660Z,995.91
2022-08-04T10:30:47.245Z,995.86
2022-08-04T10:31:51.852Z,995.86
2022-08-04T10:32:56.467Z,995.89
2022-08-04T10:34:01.139Z,995.88
2022-08-04T10:35:07.737Z,995.87
2022-08-04T10:36:12.238Z,995.87
2022-08-04T10:37:16.872Z,995.9
2022-08-04T10:38:27.418Z,995.91
2022-08-04T10:39:44.463Z,995.92
2022-08-04T10:40:48.933Z,995.9
2022-08-04T10:41:54.048Z,995.85
2022-08-04T10:42:58.642Z,995.83
2022-08-04T10:44:03.792Z,995.88
2022-08-04T10:45:08.366Z,995.89
2022-08-04T10:46:13.160Z,995.89
2022-08-04T10:47:17.781Z,995.83
2022-08-04T10:48:35.257Z,995.83
2022-08-04T10:49:39.552Z,995.85
2022-08-04T10:50:44.124Z,995.82
2022-08-04T10:51:59.896Z,995.87
2022-08-04T10:53:09.933Z,995.83
2022-08-04T10:54:14.241Z,995.8
2022-08-04T10:55:18.878Z,995.83
2022-08-04T10:56:23.428Z,995.84
2022-08-04T10:57:28.172Z,995.83
2022-08-04T10:58:48.884Z,995.83
2022-08-04T11:00:04.355Z,995.85
2022-08-04T11:01:08.806Z,995.84
2022-08-04T11:02:18.087Z,995.77
2022-08-04T11:03:22.856Z,995.78
2022-08-04T11:04:28.347Z,995.74
2022-08-04T11:05:44.619Z,995.82
2022-08-04T11:06:51.781Z,995.71
2022-08-04T11:07:57.979Z,995.7
2022-08-04T11:09:02.585Z,995.76
2022-08-04T11:10:07.240Z,995.71
2022-08-04T11:11:11.828Z,995.68
2022-08-04T11:12:16.421Z,995.74
2022-08-04T11:13:30.753Z,995.69
2022-08-04T11:14:36.690Z,995.72
2022-08-04T11:15:43.118Z,995.69
2022-08-04T11:16:47.709Z,995.71
2022-08-04T11:17:52.310Z,995.72
2022-08-04T11:18:56.951Z,995.68
2022-08-04T11:20:34.418Z,995.69
2022-08-04T11:21:25.545Z,995.68
2022-08-04T11:22:30.110Z,995.72
2022-08-04T11:23:34.648Z,995.68
2022-08-04T11:24:39.265Z,995.72
2022-08-04T11:25:52.802Z,995.65
2022-08-04T11:26:57.010Z,995.64
2022-08-04T11:28:01.567Z,995.7
2022-08-04T11:29:06.165Z,995.7
2022-08-04T11:30:14.038Z,995.69
2022-08-04T11:31:18.433Z,995.69
2022-08-04T11:32:23.001Z,995.62
2022-08-04T11:33:27.565Z,995.62
2022-08-04T11:34:32.162Z,995.62
2022-08-04T11:35:36.730Z,995.6
2022-08-04T11:36:41.345Z,995.61
2022-08-04T11:37:45.945Z,995.62
2022-08-04T11:38:52.770Z,995.7
2022-08-04T11:39:57.397Z,995.7
2022-08-04T11:41:03.558Z,995.62
2022-08-04T11:42:08.673Z,995.64
2022-08-04T11:43:13.227Z,995.6
2022-08-04T11:44:17.847Z,995.63
2022-08-04T11:45:22.418Z,995.62
2022-08-04T11:46:26.981Z,995.59
2022-08-04T11:47:31.579Z,995.52
2022-08-04T11:48:36.129Z,995.47
2022-08-04T11:49:56.204Z,995.53
2022-08-04T11:51:01.521Z,995.57
2022-08-04T11:52:06.055Z,995.6
2022-08-04T11:53:10.617Z,995.52
2022-08-04T11:54:15.260Z,995.55
2022-08-04T11:55:19.813Z,995.59
2022-08-04T11:56:38.219Z,995.57
2022-08-04T11:57:42.669Z,995.55
2022-08-04T11:58:50.896Z,995.54
2022-08-04T12:00:04.045Z,995.57
2022-08-04T12:01:10.284Z,995.55
2022-08-04T12:02:21.746Z,995.55
2022-08-04T12:03:26.098Z,995.56
2022-08-04T12:04:30.640Z,995.58
2022-08-04T12:05:38.165Z,995.55
2022-08-04T12:07:09.751Z,995.57
2022-08-04T12:08:06.463Z,995.58
2022-08-04T12:09:10.954Z,995.54
2022-08-04T12:10:15.533Z,995.54
2022-08-04T12:11:20.153Z,995.55
2022-08-04T12:12:24.710Z,995.53
2022-08-04T12:13:29.313Z,995.52
2022-08-04T12:14:33.891Z,995.46
2022-08-04T12:15:38.444Z,995.43
2022-08-04T12:16:43.095Z,995.49
2022-08-04T12:17:54.225Z,995.45
2022-08-04T12:18:58.669Z,995.46
2022-08-04T12:20:18.232Z,995.48
2022-08-04T12:21:28.378Z,995.47
2022-08-04T12:22:33.975Z,995.39
2022-08-04T12:23:38.486Z,995.44
2022-08-04T12:24:43.054Z,995.47
2022-08-04T12:25:47.595Z,995.43
2022-08-04T12:26:52.208Z,995.43
2022-08-04T12:27:56.849Z,995.36
2022-08-04T12:29:11.891Z,995.39
2022-08-04T12:30:54.525Z,995.37
2022-08-04T12:31:40.060Z,995.41
2022-08-04T12:32:55.634Z,995.36
2022-08-04T12:34:07.191Z,995.35
2022-08-04T12:35:11.438Z,995.33
2022-08-04T12:36:22.101Z,995.34
2022-08-04T12:37:26.383Z,995.35
2022-08-04T12:38:31.073Z,995.28
2022-08-04T12:40:21.821Z,995.28
2022-08-04T12:40:59.557Z,995.27
2022-08-04T12:42:04.086Z,995.31
2022-08-04T12:43:08.644Z,995.26
2022-08-04T12:44:32.737Z,995.27
2022-08-04T12:45:37.305Z,995.29
2022-08-04T12:46:41.785Z,995.26
2022-08-04T12:47:46.364Z,995.23
2022-08-04T12:48:50.938Z,995.25
2022-08-04T12:50:03.530Z,995.25
2022-08-04T12:51:31.243Z,995.22
2022-08-04T12:53:04.845Z,995.27
2022-08-04T12:53:58.610Z,995.22
2022-08-04T12:55:03.125Z,995.19
2022-08-04T12:56:08.938Z,995.21
2022-08-04T12:57:15.281Z,995.19
2022-08-04T12:58:41.822Z,995.17
2022-08-04T12:59:43.694Z,995.21
2022-08-04T13:00:48.443Z,995.27
2022-08-04T13:02:11.724Z,995.26
2022-08-04T13:03:16.925Z,995.2
2022-08-04T13:04:29.888Z,995.28
2022-08-04T13:05:34.076Z,995.26
2022-08-04T13:06:38.751Z,995.23
2022-08-04T13:07:47.475Z,995.27
2022-08-04T13:08:51.830Z,995.25
2022-08-04T13:09:56.388Z,995.23
2022-08-04T13:11:01.052Z,995.26
2022-08-04T13:12:05.628Z,995.22
2022-08-04T13:13:10.299Z,995.18
2022-08-04T13:14:28.324Z,995.17
2022-08-04T13:15:32.569Z,995.17
2022-08-04T13:16:46.784Z,995.13
2022-08-04T13:17:51.102Z,995.1
2022-08-04T13:18:55.644Z,995.02
2022-08-04T13:20:00.250Z,995.07
2022-08-04T13:21:20.693Z,995.04
2022-08-04T13:22:26.892Z,995.02
2022-08-04T13:23:51.691Z,995.02
2022-08-04T13:25:18.745Z,995
2022-08-04T13:26:41.187Z,994.97
2022-08-04T13:27:55.249Z,994.92
2022-08-04T13:29:17.274Z,994.91
2022-08-04T13:30:23.824Z,994.92
2022-08-04T13:31:36.220Z,994.85
2022-08-04T13:32:40.703Z,994.8
2022-08-04T13:33:45.134Z,994.79
2022-08-04T13:34:53.646Z,994.77
2022-08-04T13:35:58.029Z,994.77
2022-08-04T13:37:02.574Z,994.78
2022-08-04T13:38:09.239Z,994.77
2022-08-04T13:39:14.443Z,994.71
2022-08-04T13:40:19.042Z,994.7
2022-08-04T13:41:31.663Z,994.84
2022-08-04T13:42:36.320Z,994.79
2022-08-04T13:44:17.161Z,994.75
2022-08-04T13:45:04.797Z,994.79
2022-08-04T13:46:09.288Z,994.81
2022-08-04T13:47:15.180Z,994.74
2022-08-04T13:48:33.089Z,994.68
2022-08-04T13:50:09.649Z,994.74
2022-08-04T13:51:01.232Z,994.74
2022-08-04T13:52:12.231Z,994.69
2022-08-04T13:53:18.433Z,994.68
2022-08-04T13:54:26.387Z,994.65
2022-08-04T13:55:30.935Z,994.63
2022-08-04T13:56:35.516Z,994.61
2022-08-04T13:57:40.129Z,994.62
2022-08-04T13:58:44.715Z,994.62
2022-08-04T13:59:49.252Z,994.64
2022-08-04T14:00:54.161Z,994.64
2022-08-04T14:01:58.750Z,994.65
2022-08-04T14:03:19.312Z,994.64
2022-08-04T14:04:22.722Z,994.67